Time;durP1;ratioP1;P1;durP2;ratioP2;P2;SDS_P1;SDS_P2;PMS_P1;PMS_P2;Temp;Humidity;BMP_temperature;BMP_pressure;BME280_temperature;BME280_humidity;BME280_pressure;Samples;Min_cycle;Max_cycle;Signal;HPM_P1;HPM_P2
2022/08/03 00:00:52;;;;;;;11.97;6.08;;;;;;;23.10;100.00;99314.02;1718670;82;21304;-83
2022/08/03 00:03:19;;;;;;;6.28;5.60;;;;;;;23.22;100.00;99314.73;1718662;82;21539;-83
2022/08/03 00:05:45;;;;;;;8.90;5.80;;;;;;;23.15;100.00;99311.38;1716942;83;21505;-84
2022/08/03 00:08:12;;;;;;;8.80;5.87;;;;;;;23.19;100.00;99316.97;1715169;83;21523;-85
2022/08/03 00:10:38;;;;;;;11.18;6.85;;;;;;;23.05;100.00;99315.86;1718400;83;21558;-83
2022/08/03 00:13:05;;;;;;;17.23;6.05;;;;;;;23.05;100.00;99315.05;1721548;82;21183;-84
2022/08/03 00:15:31;;;;;;;10.75;5.65;;;;;;;23.12;100.00;99317.02;1717803;83;21054;-84
2022/08/03 00:17:58;;;;;;;9.18;6.25;;;;;;;23.00;100.00;99319.10;1718394;83;21045;-84
2022/08/03 00:20:24;;;;;;;10.78;6.58;;;;;;;23.02;100.00;99310.26;1722913;81;21090;-84
2022/08/03 00:22:51;;;;;;;8.90;6.35;;;;;;;22.96;100.00;99307.11;1725244;82;21540;-84
2022/08/03 00:25:18;;;;;;;10.78;6.28;;;;;;;22.93;100.00;99307.91;1717429;83;21184;-83
2022/08/03 00:27:44;;;;;;;9.08;5.42;;;;;;;22.99;100.00;99307.69;1718161;83;21063;-85
2022/08/03 00:30:11;;;;;;;9.68;5.87;;;;;;;23.07;100.00;99305.02;1721127;81;21071;-86
2022/08/03 00:32:38;;;;;;;7.90;5.20;;;;;;;23.06;100.00;99303.43;1726272;82;21021;-84
2022/08/03 00:35:06;;;;;;;7.80;5.47;;;;;;;23.05;100.00;99301.81;1719511;83;21605;-82
2022/08/03 00:37:33;;;;;;;12.70;6.45;;;;;;;23.08;100.00;99303.02;1714299;83;21296;-86
2022/08/03 00:39:59;;;;;;;8.30;5.87;;;;;;;23.04;100.00;99304.44;1716865;83;21023;-83
2022/08/03 00:42:26;;;;;;;7.37;5.90;;;;;;;23.01;100.00;99298.84;1718252;82;20993;-85
2022/08/03 00:44:52;;;;;;;7.62;6.12;;;;;;;23.22;100.00;99295.07;1719851;83;21010;-84
2022/08/03 00:47:19;;;;;;;7.42;5.72;;;;;;;23.01;100.00;99297.44;1721072;82;21045;-84
2022/08/03 00:49:45;;;;;;;10.45;5.60;;;;;;;22.83;100.00;99308.16;1720704;82;21852;-84
2022/08/03 00:52:13;;;;;;;11.00;5.87;;;;;;;22.97;100.00;99304.48;1729256;81;21046;-83
2022/08/03 00:54:39;;;;;;;8.95;6.05;;;;;;;22.85;100.00;99312.77;1718760;83;21015;-83
2022/08/03 00:57:06;;;;;;;9.58;5.12;;;;;;;23.00;100.00;99312.08;1718017;82;21009;-85
2022/08/03 00:59:34;;;;;;;8.23;5.62;;;;;;;23.12;100.00;99318.42;1717492;83;21545;-86
2022/08/03 01:02:01;;;;;;;11.68;6.60;;;;;;;23.07;100.00;99316.25;1723278;82;21226;-84
2022/08/03 01:04:27;;;;;;;12.07;5.70;;;;;;;23.01;100.00;99309.48;1718509;83;21094;-84
2022/08/03 01:07:16;;;;;;;9.53;6.00;;;;;;;23.20;100.00;99305.95;1718119;81;21032;-84
2022/08/03 01:10:09;;;;;;;9.98;6.00;;;;;;;23.20;100.00;99306.72;1721653;81;21013;-84
2022/08/03 01:13:03;;;;;;;11.50;6.08;;;;;;;23.25;100.00;99299.89;1730013;81;21068;-84
2022/08/03 01:16:11;;;;;;;8.53;5.72;;;;;;;23.07;100.00;99300.00;1722077;83;21143;-84
2022/08/03 01:18:54;;;;;;;8.30;5.92;;;;;;;22.90;100.00;99301.11;1744292;81;21493;-84
2022/08/03 01:21:31;;;;;;;11.50;5.33;;;;;;;22.68;100.00;99313.87;1730150;81;21112;-84
2022/08/03 01:24:11;;;;;;;6.83;5.78;;;;;;;22.87;100.00;99314.58;1719235;83;21019;-86
2022/08/03 01:26:56;;;;;;;9.83;6.87;;;;;;;22.82;100.00;99319.22;1659569;83;21082;-84
2022/08/03 01:29:58;;;;;;;13.15;6.80;;;;;;;22.72;100.00;99316.66;1719102;81;21830;-84
2022/08/03 01:33:02;;;;;;;10.40;6.33;;;;;;;22.83;100.00;99316.59;1618663;86;21444;-69
2022/08/03 01:35:37;;;;;;;10.15;6.12;;;;;;;22.66;100.00;99319.09;1630585;86;21041;-69
2022/08/03 01:38:14;;;;;;;13.95;7.15;;;;;;;22.77;100.00;99323.25;1631363;86;21009;-70
2022/08/03 01:40:43;;;;;;;14.23;6.70;;;;;;;22.85;100.00;99317.80;1639166;85;21104;-67
2022/08/03 01:43:16;;;;;;;23.47;7.05;;;;;;;22.75;100.00;99324.27;1627230;86;21544;-67
2022/08/03 01:45:44;;;;;;;12.98;6.45;;;;;;;22.76;100.00;99330.06;1624426;86;21039;-66
2022/08/03 01:48:13;;;;;;;18.82;7.42;;;;;;;22.74;100.00;99329.06;1634636;86;21051;-67
2022/08/03 01:50:40;;;;;;;9.20;7.22;;;;;;;22.69;100.00;99322.48;1634042;86;21080;-69
2022/08/03 01:53:06;;;;;;;10.68;6.30;;;;;;;22.52;100.00;99319.91;1627303;86;21087;-68
2022/08/03 01:55:36;;;;;;;8.98;6.33;;;;;;;22.63;100.00;99319.09;1628713;86;21601;-69
2022/08/03 01:58:11;;;;;;;10.63;6.65;;;;;;;22.68;100.00;99327.09;1629078;86;21056;-69
2022/08/03 02:00:39;;;;;;;10.65;6.72;;;;;;;22.72;100.00;99330.08;1619936;86;21111;-68
2022/08/03 02:03:07;;;;;;;10.30;6.42;;;;;;;22.71;100.00;99321.47;1619217;86;21589;-69
2022/08/03 02:05:37;;;;;;;10.15;7.17;;;;;;;22.77;100.00;99316.83;1620089;86;21108;-69
2022/08/03 02:08:05;;;;;;;12.50;6.28;;;;;;;22.81;100.00;99314.19;1652481;84;21142;-69
2022/08/03 02:10:32;;;;;;;9.15;5.78;;;;;;;22.91;100.00;99307.53;1622227;85;21096;-67
2022/08/03 02:13:04;;;;;;;17.07;7.03;;;;;;;22.96;100.00;99309.29;1656036;84;21132;-69
2022/08/03 02:15:38;;;;;;;9.68;6.20;;;;;;;23.09;100.00;99305.41;1651141;85;21013;-70
2022/08/03 02:18:07;;;;;;;6.65;5.83;;;;;;;22.84;100.00;99313.37;1648862;85;21056;-69
2022/08/03 02:20:37;;;;;;;10.00;5.80;;;;;;;23.12;100.00;99311.39;1643580;85;21238;-70
2022/08/03 02:23:05;;;;;;;6.62;5.67;;;;;;;23.07;100.00;99307.83;1666789;82;21073;-69
2022/08/03 02:25:35;;;;;;;13.10;5.50;;;;;;;23.07;100.00;99313.45;1629856;86;22160;-68
2022/08/03 02:28:08;;;;;;;14.85;5.75;;;;;;;23.12;100.00;99313.61;1655192;83;21053;-67
2022/08/03 02:30:37;;;;;;;10.38;6.37;;;;;;;23.15;100.00;99313.41;1648518;84;21619;-68
2022/08/03 02:33:09;;;;;;;11.63;6.55;;;;;;;23.18;100.00;99309.77;1654912;85;21262;-68
2022/08/03 02:35:37;;;;;;;12.95;6.53;;;;;;;23.05;100.00;99313.64;1661504;85;21483;-70
2022/08/03 02:38:08;;;;;;;10.43;5.80;;;;;;;23.07;100.00;99312.04;1648820;85;21017;-69
2022/08/03 02:40:37;;;;;;;13.70;5.87;;;;;;;23.00;100.00;99305.05;1658224;85;21052;-70
2022/08/03 02:43:07;;;;;;;15.35;5.85;;;;;;;22.89;100.00;99308.55;1651976;85;21034;-68
2022/08/03 02:45:39;;;;;;;10.85;5.03;;;;;;;22.83;100.00;99306.16;1655436;85;21170;-68
2022/08/03 02:48:11;;;;;;;9.48;5.70;;;;;;;22.79;100.00;99310.98;1652327;84;21118;-68
2022/08/03 02:50:37;;;;;;;9.38;5.42;;;;;;;22.99;100.00;99313.30;1657372;85;21047;-67
2022/08/03 02:53:06;;;;;;;9.35;5.62;;;;;;;22.98;100.00;99310.28;1654712;85;21079;-67
2022/08/03 02:55:37;;;;;;;11.22;5.97;;;;;;;23.10;100.00;99312.62;1657037;85;21063;-69
2022/08/03 02:58:07;;;;;;;13.22;7.00;;;;;;;23.09;100.00;99318.65;1647325;85;21006;-67
2022/08/03 03:00:35;;;;;;;8.75;6.47;;;;;;;23.07;100.00;99315.45;1660082;85;21032;-67
2022/08/03 03:03:01;;;;;;;6.72;5.40;;;;;;;23.06;100.00;99311.86;1656259;86;21066;-67
2022/08/03 03:05:28;;;;;;;9.33;6.42;;;;;;;23.14;100.00;99303.36;1652654;85;21044;-68
2022/08/03 03:07:58;;;;;;;8.88;6.08;;;;;;;23.15;100.00;99315.59;1655298;85;21046;-69
2022/08/03 03:10:25;;;;;;;10.03;5.37;;;;;;;22.98;100.00;99318.11;1655770;85;21161;-67
2022/08/03 03:12:56;;;;;;;8.78;5.83;;;;;;;23.35;100.00;99311.62;1656525;85;21150;-67
2022/08/03 03:15:30;;;;;;;11.63;6.55;;;;;;;23.42;100.00;99305.81;1660479;85;21079;-67
2022/08/03 03:17:56;;;;;;;8.78;5.85;;;;;;;23.49;100.00;99302.14;1655586;85;21033;-67
2022/08/03 03:20:24;;;;;;;9.55;5.95;;;;;;;23.56;100.00;99298.64;1648070;85;21611;-68
2022/08/03 03:22:51;;;;;;;8.43;6.42;;;;;;;23.48;100.00;99301.33;1655441;85;22036;-66
2022/08/03 03:25:20;;;;;;;13.53;6.40;;;;;;;23.46;100.00;99303.75;1655405;84;21038;-68
2022/08/03 03:27:47;;;;;;;9.58;6.72;;;;;;;23.43;100.00;99305.39;1650403;85;21055;-69
2022/08/03 03:30:14;;;;;;;13.48;6.87;;;;;;;23.30;100.00;99304.27;1653705;85;21056;-67
2022/08/03 03:32:43;;;;;;;11.57;6.75;;;;;;;23.25;100.00;99307.51;1679782;84;21086;-66
2022/08/03 03:35:15;;;;;;;13.75;6.75;;;;;;;23.27;100.00;99317.11;1650047;86;21487;-67
2022/08/03 03:37:42;;;;;;;12.05;7.40;;;;;;;23.09;100.00;99320.86;1652197;85;21076;-68
2022/08/03 03:40:11;;;;;;;7.65;5.85;;;;;;;23.16;100.00;99307.97;1641538;86;21083;-67
2022/08/03 03:42:40;;;;;;;10.75;7.40;;;;;;;23.17;100.00;99316.58;1653800;86;21056;-67
2022/08/03 03:45:10;;;;;;;9.08;6.35;;;;;;;22.95;100.00;99320.94;1650816;86;21071;-67
2022/08/03 03:47:36;;;;;;;9.78;6.80;;;;;;;22.90;100.00;99329.79;1637536;85;21223;-67
2022/08/03 03:50:05;;;;;;;10.95;7.22;;;;;;;22.93;100.00;99335.98;1643090;86;21103;-67
2022/08/03 03:52:32;;;;;;;9.30;7.22;;;;;;;22.95;100.00;99341.41;1648523;86;21079;-68
2022/08/03 03:55:01;;;;;;;9.15;6.03;;;;;;;22.98;100.00;99348.20;1650206;86;21069;-69
2022/08/03 03:57:28;;;;;;;9.20;6.78;;;;;;;23.01;100.00;99351.61;1644214;86;21032;-68
2022/08/03 03:59:56;;;;;;;9.93;6.83;;;;;;;23.09;100.00;99349.55;1647131;86;21102;-70
2022/08/03 04:02:23;;;;;;;8.80;6.72;;;;;;;23.10;100.00;99350.55;1651590;86;21569;-69
2022/08/03 04:13:21;;;;;;;13.72;7.17;;;;;;;23.09;100.00;99354.57;1644969;86;21500;-67
2022/08/03 04:15:48;;;;;;;11.33;7.05;;;;;;;22.96;100.00;99357.66;1648099;86;21086;-68
2022/08/03 04:18:15;;;;;;;11.68;7.55;;;;;;;23.12;100.00;99352.94;1645404;86;21927;-68
2022/08/03 04:20:44;;;;;;;11.22;6.65;;;;;;;23.14;100.00;99350.52;1648428;86;21028;-68
2022/08/03 04:23:11;;;;;;;14.73;7.65;;;;;;;23.02;100.00;99349.58;1640242;86;21634;-67
2022/08/03 04:25:38;;;;;;;9.30;6.60;;;;;;;23.08;100.00;99357.17;1612876;86;21127;-67
2022/08/03 04:28:09;;;;;;;10.50;7.33;;;;;;;22.98;100.00;99365.05;1647421;86;21111;-66
2022/08/03 04:30:38;;;;;;;11.33;7.25;;;;;;;22.96;100.00;99361.88;1650787;86;21528;-67
2022/08/03 04:33:09;;;;;;;26.02;8.08;;;;;;;22.97;100.00;99360.65;1645545;86;21082;-67
2022/08/03 04:35:35;;;;;;;8.08;6.25;;;;;;;23.00;100.00;99362.64;1650464;85;21040;-66
2022/08/03 04:38:04;;;;;;;7.87;6.47;;;;;;;23.01;100.00;99360.64;1629594;86;21298;-67
2022/08/03 04:40:36;;;;;;;9.85;5.97;;;;;;;23.04;100.00;99367.64;1649894;86;21036;-68
2022/08/03 04:43:03;;;;;;;11.63;7.28;;;;;;;22.99;100.00;99373.69;1640444;86;21078;-68
2022/08/03 04:45:35;;;;;;;8.05;6.37;;;;;;;23.00;100.00;99371.69;1651987;86;21080;-69
2022/08/03 04:48:03;;;;;;;11.45;6.45;;;;;;;23.10;100.00;99363.78;1645197;86;21585;-70
2022/08/03 04:50:36;;;;;;;8.25;6.20;;;;;;;23.14;100.00;99370.19;1654361;86;21027;-71
2022/08/03 04:53:09;;;;;;;8.90;6.37;;;;;;;23.07;100.00;99366.01;1644876;86;21044;-69
2022/08/03 04:55:37;;;;;;;11.43;6.33;;;;;;;23.05;100.00;99367.02;1653303;86;21007;-68
2022/08/03 04:58:05;;;;;;;11.63;5.78;;;;;;;23.09;100.00;99369.21;1644839;86;21082;-69
2022/08/03 05:00:33;;;;;;;8.63;6.15;;;;;;;23.14;100.00;99370.78;1656437;86;21138;-67
2022/08/03 05:03:02;;;;;;;12.23;5.95;;;;;;;23.24;100.00;99371.33;1647949;86;22122;-67
2022/08/03 05:05:31;;;;;;;9.55;5.75;;;;;;;23.27;100.00;99364.88;1647108;85;21114;-67
2022/08/03 05:07:57;;;;;;;7.85;5.30;;;;;;;23.53;100.00;99359.92;1641256;84;21559;-68
2022/08/03 05:10:24;;;;;;;5.92;5.37;;;;;;;23.67;100.00;99359.61;1635961;86;21134;-67
2022/08/03 05:12:51;;;;;;;7.67;5.75;;;;;;;23.33;100.00;99373.69;1651803;86;21119;-68
2022/08/03 05:15:21;;;;;;;10.80;6.60;;;;;;;23.37;100.00;99377.88;1652195;86;21848;-67
2022/08/03 05:17:47;;;;;;;12.70;6.20;;;;;;;23.53;100.00;99369.76;1649044;86;21067;-66
2022/08/03 05:20:14;;;;;;;11.35;6.00;;;;;;;23.54;100.00;99375.56;1641528;86;21560;-68
2022/08/03 05:22:43;;;;;;;13.28;5.70;;;;;;;23.49;100.00;99368.97;1641506;86;21134;-68
2022/08/03 05:25:09;;;;;;;14.95;6.72;;;;;;;23.49;100.00;99371.78;1637062;86;21067;-68
2022/08/03 05:27:39;;;;;;;11.90;6.12;;;;;;;23.52;100.00;99367.36;1638007;86;21131;-66
2022/08/03 05:30:08;;;;;;;14.85;6.25;;;;;;;23.50;100.00;99370.59;1639511;85;21098;-65
2022/08/03 05:32:38;;;;;;;7.15;6.15;;;;;;;23.57;100.00;99371.14;1662182;84;21527;-66
2022/08/03 05:35:08;;;;;;;11.28;6.25;;;;;;;23.61;100.00;99371.89;1669006;84;21110;-67
2022/08/03 05:37:35;;;;;;;10.68;6.35;;;;;;;23.62;100.00;99367.08;1667389;84;21121;-69
2022/08/03 05:40:03;;;;;;;10.38;5.87;;;;;;;23.59;100.00;99374.34;1665623;84;21126;-68
2022/08/03 05:42:32;;;;;;;14.38;6.33;;;;;;;23.66;100.00;99373.48;1693033;83;21532;-68
2022/08/03 05:45:15;;;;;;;11.93;6.40;;;;;;;23.55;100.00;99379.98;1669007;84;21110;-68
2022/08/03 05:47:44;;;;;;;;;;;;;;;23.51;100.00;99388.27;1632690;85;21047;-68
2022/08/03 05:50:13;;;;;;;9.13;6.03;;;;;;;23.56;100.00;99386.42;1634471;86;20238;-68
2022/08/03 05:52:42;;;;;;;13.00;6.33;;;;;;;23.61;100.00;99387.98;1645109;85;21238;-69
2022/08/03 05:55:10;;;;;;;9.68;5.97;;;;;;;23.67;100.00;99392.75;1677630;83;21085;-66
2022/08/03 05:57:39;;;;;;;10.88;6.45;;;;;;;23.59;100.00;99394.80;1669738;84;21815;-68
2022/08/03 06:00:08;;;;;;;12.13;6.47;;;;;;;23.53;100.00;99396.46;1673364;84;21575;-67
2022/08/03 06:02:39;;;;;;;12.75;7.62;;;;;;;23.53;100.00;99394.25;1680997;84;21026;-68
2022/08/03 06:05:07;;;;;;;17.02;6.47;;;;;;;23.47;100.00;99399.53;1667286;84;21126;-66
2022/08/03 06:07:45;;;;;;;17.50;6.62;;;;;;;23.47;100.00;99399.53;1667035;84;21126;-65
2022/08/03 06:10:15;;;;;;;13.20;6.85;;;;;;;23.42;100.00;99407.77;1682002;84;21649;-65
2022/08/03 06:12:48;;;;;;;13.72;7.25;;;;;;;23.46;100.00;99415.58;1683728;83;21063;-69
2022/08/03 06:15:15;;;;;;;12.27;7.17;;;;;;;23.53;100.00;99415.33;1674862;84;21077;-66
2022/08/03 06:17:50;;;;;;;7.70;6.67;;;;;;;23.65;100.00;99414.05;1673546;84;21119;-67
2022/08/03 06:20:24;;;;;;;11.55;7.28;;;;;;;23.70;100.00;99409.39;1677923;84;21046;-68
2022/08/03 06:22:55;;;;;;;13.45;7.00;;;;;;;23.80;100.00;99402.08;1690945;84;21079;-68
2022/08/03 06:25:25;;;;;;;9.20;6.87;;;;;;;23.81;100.00;99401.69;1682922;84;21061;-70
2022/08/03 06:27:58;;;;;;;12.47;7.00;;;;;;;23.87;100.00;99409.66;1688595;83;21097;-66
2022/08/03 06:30:26;;;;;;;9.88;6.67;;;;;;;23.91;100.00;99409.03;1679098;84;21627;-65
2022/08/03 06:32:53;;;;;;;12.70;6.70;;;;;;;23.94;100.00;99415.23;1670881;85;21018;-65
2022/08/03 06:35:20;;;;;;;12.10;6.47;;;;;;;23.98;100.00;99407.56;1671611;85;21483;-65
2022/08/03 06:37:50;;;;;;;13.10;7.17;;;;;;;24.12;100.00;99407.24;1673179;85;21054;-68
2022/08/03 06:40:30;;;;;;;15.13;6.62;;;;;;;24.11;100.00;99404.22;1673727;85;21049;-65
2022/08/03 06:43:02;;;;;;;13.60;7.15;;;;;;;24.31;100.00;99403.85;1670692;85;21082;-65
2022/08/03 06:45:30;;;;;;;11.03;7.05;;;;;;;24.34;100.00;99408.47;1635385;86;21542;-66
2022/08/03 06:48:08;;;;;;;11.38;7.33;;;;;;;24.41;100.00;99404.95;1683216;85;21008;-67
2022/08/03 06:50:36;;;;;;;13.18;7.45;;;;;;;24.42;100.00;99403.75;1652828;85;21023;-67
2022/08/03 06:53:03;;;;;;;13.70;7.92;;;;;;;24.46;100.00;99394.47;1678946;85;21018;-67
2022/08/03 06:55:33;;;;;;;16.45;7.42;;;;;;;24.49;100.00;99393.02;1677773;85;21159;-68
2022/08/03 06:58:00;;;;;;;9.53;7.47;;;;;;;24.52;100.00;99389.97;1682158;84;21082;-66
2022/08/03 07:00:28;;;;;;;9.40;6.50;;;;;;;24.62;100.00;99395.27;1669249;84;21019;-69
2022/08/03 07:02:56;;;;;;;14.85;7.33;;;;;;;24.72;100.00;99394.98;1632876;85;21091;-67
2022/08/03 07:05:27;;;;;;;11.15;6.90;;;;;;;24.80;100.00;99390.22;1640460;85;21568;-65
2022/08/03 07:07:56;;;;;;;16.73;6.12;;;;;;;24.94;100.00;99401.17;1662980;85;21158;-67
2022/08/03 07:10:23;;;;;;;10.32;7.20;;;;;;;25.02;100.00;99396.23;1663561;85;21054;-70
2022/08/03 07:12:56;;;;;;;14.85;6.65;;;;;;;25.00;100.00;99406.52;1663180;84;21059;-69
2022/08/03 07:15:26;;;;;;;8.45;6.28;;;;;;;24.98;100.00;99405.33;1664872;84;21076;-71
2022/08/03 07:17:54;;;;;;;9.85;6.22;;;;;;;25.01;100.00;99399.66;1665856;84;21073;-67
2022/08/03 07:20:21;;;;;;;13.43;6.60;;;;;;;24.96;100.00;99400.75;1666177;84;21667;-72
2022/08/03 07:22:51;;;;;;;9.20;6.55;;;;;;;25.06;100.00;99406.05;1663237;84;21041;-67
2022/08/03 07:25:20;;;;;;;11.70;7.67;;;;;;;25.10;100.00;99405.38;1664708;84;21551;-67
2022/08/03 07:27:51;;;;;;;11.88;6.40;;;;;;;25.15;100.00;99404.91;1634313;84;21006;-68
2022/08/03 07:30:22;;;;;;;10.58;6.65;;;;;;;25.28;100.00;99411.56;1668046;84;21106;-71
2022/08/03 07:32:50;;;;;;;10.05;6.72;;;;;;;25.37;100.00;99413.86;1654810;84;21011;-65
2022/08/03 07:35:21;;;;;;;14.03;6.97;;;;;;;25.31;100.00;99413.35;1641515;85;21115;-67
2022/08/03 07:38:00;;;;;;;13.38;7.55;;;;;;;25.42;100.00;99407.57;1641055;84;21105;-66
2022/08/03 07:40:33;;;;;;;8.98;6.08;;;;;;;25.54;100.00;99415.42;1637143;85;21110;-66
2022/08/03 07:43:02;;;;;;;12.60;6.78;;;;;;;25.82;100.00;99405.55;1639059;85;21107;-68
2022/08/03 07:45:31;;;;;;;18.02;6.15;;;;;;;25.98;100.00;99406.31;1635571;85;21763;-70
2022/08/03 07:48:04;;;;;;;10.75;6.20;;;;;;;26.14;100.00;99408.44;1651404;86;21167;-65
2022/08/03 07:50:32;;;;;;;18.35;7.70;;;;;;;26.30;100.00;99408.36;1649570;85;21095;-68
2022/08/03 07:53:02;;;;;;;10.60;6.08;;;;;;;26.16;100.00;99398.92;1642512;86;21037;-66
2022/08/03 07:55:30;;;;;;;14.38;6.35;;;;;;;26.09;100.00;99408.32;1650202;86;21551;-67
2022/08/03 07:58:06;;;;;;;8.88;6.17;;;;;;;26.11;100.00;99414.94;1629254;86;21125;-68
2022/08/03 08:00:43;;;;;;;8.35;5.50;;;;;;;26.09;100.00;99414.56;1644810;86;21528;-68
2022/08/03 08:03:14;;;;;;;9.23;6.17;;;;;;;26.04;100.00;99410.22;1648442;85;21123;-67
2022/08/03 08:05:45;;;;;;;8.40;6.20;;;;;;;26.04;100.00;99412.23;1641769;86;21135;-68
2022/08/03 08:08:12;;;;;;;10.48;6.35;;;;;;;26.13;100.00;99406.84;1626967;86;21037;-68
2022/08/03 08:10:41;;;;;;;10.23;7.05;;;;;;;26.22;100.00;99412.72;1627069;87;21132;-67
2022/08/03 08:13:10;;;;;;;10.40;6.67;;;;;;;26.25;100.00;99409.66;1642687;85;21497;-66
2022/08/03 08:15:38;;;;;;;11.00;6.83;;;;;;;26.33;100.00;99414.55;1651467;86;21071;-65
2022/08/03 08:18:07;;;;;;;10.98;5.80;;;;;;;26.45;100.00;99421.02;1645061;86;21099;-66
2022/08/03 08:20:37;;;;;;;9.65;6.33;;;;;;;26.63;100.00;99420.48;1650417;86;21063;-68
2022/08/03 08:23:10;;;;;;;9.15;6.55;;;;;;;26.82;100.00;99411.81;1649375;86;21170;-67
2022/08/03 08:25:44;;;;;;;7.47;5.83;;;;;;;26.91;100.00;99404.97;1651069;86;21083;-71
2022/08/03 08:28:12;;;;;;;9.78;5.10;;;;;;;26.93;100.00;99398.27;1643739;85;21584;-67
2022/08/03 08:30:43;;;;;;;12.87;6.33;;;;;;;27.00;100.00;99402.97;1636814;84;21079;-70
2022/08/03 08:33:13;;;;;;;10.82;6.12;;;;;;;27.09;100.00;99406.02;1651717;85;21084;-69
2022/08/03 08:35:45;;;;;;;6.80;5.45;;;;;;;27.17;100.00;99410.11;1667614;84;21158;-68
2022/08/03 08:38:11;;;;;;;8.08;5.62;;;;;;;27.26;100.00;99406.05;1673644;85;21049;-65
2022/08/03 08:40:40;;;;;;;15.32;6.15;;;;;;;27.32;100.00;99407.14;1670439;85;21136;-68
2022/08/03 08:43:11;;;;;;;10.82;7.17;;;;;;;27.43;100.00;99398.39;1665220;85;21575;-66
2022/08/03 08:45:40;;;;;;;12.50;6.03;;;;;;;27.44;100.00;99400.61;1644423;85;21078;-65
2022/08/03 08:48:11;;;;;;;19.57;6.65;;;;;;;27.50;100.00;99407.33;1678549;85;21047;-67
2022/08/03 08:50:38;;;;;;;14.10;7.05;;;;;;;27.52;100.00;99399.84;1648032;85;21082;-64
2022/08/03 08:53:08;;;;;;;11.60;5.60;;;;;;;27.64;100.00;99389.22;1667676;85;21046;-64
2022/08/03 08:55:42;;;;;;;12.03;6.37;;;;;;;27.68;100.00;99401.25;1640598;86;21114;-65
2022/08/03 08:58:17;;;;;;;13.15;6.33;;;;;;;27.78;100.00;99407.11;1630782;86;21027;-65
2022/08/03 09:00:47;;;;;;;15.03;6.85;;;;;;;27.97;100.00;99403.20;1685869;85;21081;-66
2022/08/03 09:03:15;;;;;;;11.18;6.17;;;;;;;28.09;100.00;99411.59;1675802;85;21126;-73
2022/08/03 09:05:45;;;;;;;18.20;6.67;;;;;;;28.18;100.00;99408.30;1675960;85;21060;-66
2022/08/03 09:08:14;;;;;;;12.07;6.17;;;;;;;28.20;100.00;99405.02;1680452;85;21074;-65
2022/08/03 09:10:55;;;;;;;10.25;6.28;;;;;;;28.12;100.00;99400.18;1658325;85;21094;-66
2022/08/03 09:13:23;;;;;;;12.13;6.05;;;;;;;28.13;100.00;99400.34;1681034;84;21241;-65
2022/08/03 09:16:16;;;;;;;17.00;7.17;;;;;;;28.02;100.00;99397.81;1680249;83;21103;-67
2022/08/03 09:18:48;;;;;;;8.25;6.45;;;;;;;27.95;100.00;99403.65;1671717;84;21047;-66
2022/08/03 09:21:28;;;;;;;10.55;6.42;;;;;;;27.98;100.00;99397.09;1679149;83;21050;-68
2022/08/03 09:23:56;;;;;;;13.43;6.03;;;;;;;27.96;100.00;99392.52;1689663;83;21114;-67
2022/08/03 09:26:25;;;;;;;9.10;6.47;;;;;;;27.88;100.00;99386.84;1650452;85;21808;-68
2022/08/03 09:29:07;;;;;;;10.58;6.70;;;;;;;27.82;100.00;99381.72;1643611;85;21545;-67
2022/08/03 09:31:43;;;;;;;7.90;6.25;;;;;;;27.98;100.00;99386.41;1682921;83;21050;-68
2022/08/03 09:34:12;;;;;;;14.35;6.70;;;;;;;28.13;100.00;99391.08;1662633;84;21024;-66
2022/08/03 09:36:48;;;;;;;9.23;6.28;;;;;;;28.42;100.00;99376.94;1667306;84;21055;-66
2022/08/03 09:39:24;;;;;;;11.45;6.33;;;;;;;28.56;100.00;99379.20;1659707;84;21151;-66
2022/08/03 09:42:16;;;;;;;10.70;6.42;;;;;;;28.69;100.00;99382.08;1642458;86;21100;-65
2022/08/03 09:44:46;;;;;;;11.33;6.62;;;;;;;28.85;100.00;99383.25;1638777;85;21552;-67
2022/08/03 09:47:28;;;;;;;8.30;6.22;;;;;;;28.89;100.00;99381.89;1643426;85;21124;-67
2022/08/03 09:50:01;;;;;;;9.53;6.28;;;;;;;28.89;100.00;99383.92;1642667;85;21103;-65
2022/08/03 09:52:39;;;;;;;9.33;6.47;;;;;;;28.86;100.00;99382.80;1648594;85;21556;-68
2022/08/03 09:55:13;;;;;;;10.70;5.80;;;;;;;28.79;100.00;99375.92;1643906;85;21032;-66
2022/08/03 09:57:45;;;;;;;9.93;6.30;;;;;;;28.58;100.00;99366.80;1641783;85;21051;-67
2022/08/03 10:00:16;;;;;;;8.38;6.22;;;;;;;28.50;100.00;99381.00;1640494;85;21737;-67
2022/08/03 10:02:46;;;;;;;10.03;6.62;;;;;;;28.50;100.00;99383.83;1642057;85;21524;-68
2022/08/03 10:05:15;;;;;;;13.40;6.55;;;;;;;28.51;100.00;99381.96;1645843;85;21207;-66
2022/08/03 10:07:49;;;;;;;7.17;5.72;;;;;;;28.53;100.00;99381.52;1650456;85;21523;-66
2022/08/03 10:10:21;;;;;;;22.45;6.22;;;;;;;28.51;100.00;99395.32;1646627;86;21060;-65
2022/08/03 10:12:50;;;;;;;13.68;7.05;;;;;;;28.45;100.00;99410.67;1648930;86;21052;-66
2022/08/03 10:15:20;;;;;;;13.60;6.50;;;;;;;28.32;100.00;99423.31;1653112;85;21111;-66
2022/08/03 10:17:53;;;;;;;7.33;5.78;;;;;;;28.16;100.00;99421.32;1644258;86;21891;-69
2022/08/03 10:20:26;;;;;;;10.18;6.28;;;;;;;28.06;100.00;99428.22;1629744;86;21045;-72
2022/08/03 10:22:54;;;;;;;10.68;6.50;;;;;;;27.81;100.00;99431.08;1623707;85;21096;-67
2022/08/03 10:25:24;;;;;;;8.68;6.05;;;;;;;27.76;100.00;99433.62;1626192;86;21024;-67
2022/08/03 10:27:55;;;;;;;13.32;6.58;;;;;;;27.68;100.00;99441.47;1650851;86;21025;-67
2022/08/03 10:30:26;;;;;;;15.15;6.28;;;;;;;27.68;100.00;99441.47;1626872;87;21512;-66
2022/08/03 10:33:10;;;;;;;14.87;6.20;;;;;;;27.68;100.00;99448.55;1647258;86;21086;-70
2022/08/03 10:35:41;;;;;;;9.03;5.75;;;;;;;27.70;100.00;99451.16;1642278;86;21063;-67
2022/08/03 10:38:21;;;;;;;9.95;6.50;;;;;;;27.59;100.00;99441.47;1625868;85;21065;-69
2022/08/03 10:40:53;;;;;;;9.25;5.90;;;;;;;27.50;100.00;99439.85;1621318;85;21116;-65
2022/08/03 10:43:32;;;;;;;10.45;6.33;;;;;;;27.35;100.00;99433.73;1638386;85;21109;-68
2022/08/03 10:45:59;;;;;;;14.00;7.12;;;;;;;27.32;100.00;99436.02;1639985;85;21111;-66
2022/08/03 10:48:26;;;;;;;10.70;6.12;;;;;;;27.31;100.00;99429.56;1647373;85;21530;-67
2022/08/03 10:50:55;;;;;;;8.00;5.53;;;;;;;27.34;100.00;99430.73;1641955;85;21072;-68
2022/08/03 10:53:46;;;;;;;8.45;6.75;;;;;;;27.45;100.00;99437.54;1638188;87;21553;-68
2022/08/03 10:59:50;;;;;;;12.37;6.55;;;;;;;27.77;100.00;99440.89;1649515;86;21372;-68
2022/08/03 11:02:20;;;;;;;11.88;6.90;;;;;;;28.02;100.00;99438.86;1642362;86;21082;-69
2022/08/03 11:04:49;;;;;;;10.82;6.20;;;;;;;28.18;100.00;99423.87;1652373;86;20961;-69
2022/08/03 11:07:28;;;;;;;10.32;6.10;;;;;;;28.19;100.00;99422.65;1599136;87;21088;-69
2022/08/03 11:09:57;;;;;;;8.40;5.80;;;;;;;28.28;100.00;99407.86;1650476;86;21096;-68
2022/08/03 11:12:33;;;;;;;7.97;5.90;;;;;;;28.41;100.00;99417.84;1652126;86;21074;-70
2022/08/03 11:15:07;;;;;;;6.03;5.42;;;;;;;28.57;100.00;99418.24;1647783;86;20893;-67
2022/08/03 11:17:37;;;;;;;9.05;5.80;;;;;;;28.70;100.00;99404.11;1653038;86;20935;-72
2022/08/03 11:20:05;;;;;;;8.15;6.20;;;;;;;28.76;100.00;99393.83;1651623;86;20957;-65
2022/08/03 11:22:53;;;;;;;11.18;6.12;;;;;;;28.77;100.00;99396.83;1626888;86;21103;-69
2022/08/03 11:25:23;;;;;;;10.80;6.33;;;;;;;28.78;100.00;99388.52;1646192;86;21063;-67
2022/08/03 11:27:58;;;;;;;7.75;5.80;;;;;;;28.77;100.00;99385.48;1672476;85;21064;-67
2022/08/03 11:30:28;;;;;;;10.55;5.37;;;;;;;28.73;100.00;99381.98;1649804;86;21525;-68
2022/08/03 11:32:57;;;;;;;9.35;5.20;;;;;;;28.72;100.00;99384.63;1647562;86;21086;-67
2022/08/03 11:35:44;;;;;;;8.48;5.60;;;;;;;28.82;100.00;99379.27;1653343;86;21271;-70
2022/08/03 11:38:06;;;;;;;13.75;5.53;;;;;;;28.99;100.00;99370.70;1647954;86;21020;-67
2022/08/03 11:40:54;;;;;;;6.75;5.22;;;;;;;28.95;100.00;99362.91;1654793;86;21180;-67
2022/08/03 11:43:27;;;;;;;7.15;5.47;;;;;;;28.87;100.00;99362.32;1650837;86;21017;-67
2022/08/03 11:46:02;;;;;;;5.17;4.67;;;;;;;29.02;100.00;99362.70;1650981;86;21099;-67
2022/08/03 11:48:38;;;;;;;8.43;5.75;;;;;;;29.15;100.00;99357.06;1649395;86;21076;-71
2022/08/03 11:51:06;;;;;;;7.40;5.33;;;;;;;29.13;100.00;99354.67;1649557;86;21012;-65